Time;durP1;ratioP1;P1;durP2;ratioP2;P2;SDS_P1;SDS_P2;PMS_P1;PMS_P2;Temp;Humidity;BMP_temperature;BMP_pressure;BME280_temperature;BME280_humidity;BME280_pressure;Samples;Min_cycle;Max_cycle;Signal;HPM_P1;HPM_P2
2021/09/05 11:44:35;;;;;;;8.65;7.88;;;22.10;99.90;;;;;;5090944;27;20586;-70
2021/09/05 11:47:18;;;;;;;11.80;8.32;;;22.10;99.90;;;;;;5090870;28;20624;-71
2021/09/05 11:49:52;;;;;;;8.43;7.55;;;22.20;99.90;;;;;;5089744;28;20179;-71
2021/09/05 11:52:31;;;;;;;9.68;7.55;;;22.40;99.90;;;;;;5089535;28;20257;-71
2021/09/05 11:55:06;;;;;;;10.38;7.60;;;22.50;99.90;;;;;;5090729;28;20170;-71
2021/09/05 11:57:38;;;;;;;8.90;8.10;;;22.60;99.90;;;;;;5090703;28;20204;-71
2021/09/05 12:00:08;;;;;;;8.00;6.43;;;22.70;99.90;;;;;;5090771;28;20167;-71
2021/09/05 12:02:36;;;;;;;9.45;6.88;;;22.90;99.90;;;;;;5090644;28;20187;-71
2021/09/05 12:05:06;;;;;;;9.02;7.18;;;22.90;99.90;;;;;;5090554;28;20163;-71
2021/09/05 12:07:36;;;;;;;7.20;6.55;;;23.00;99.90;;;;;;5089273;28;20174;-71
2021/09/05 12:10:09;;;;;;;7.15;6.55;;;23.00;99.90;;;;;;5090395;28;20274;-70
2021/09/05 12:12:37;;;;;;;7.03;6.53;;;23.00;99.90;;;;;;5090385;28;20650;-71
2021/09/05 12:15:16;;;;;;;7.57;7.05;;;23.00;99.90;;;;;;5089081;28;20171;-71
2021/09/05 12:17:50;;;;;;;6.45;5.88;;;23.00;99.90;;;;;;5090259;28;20170;-71
2021/09/05 12:20:17;;;;;;;6.65;6.15;;;23.10;99.90;;;;;;5090274;28;20709;-71
2021/09/05 12:23:01;;;;;;;8.77;7.97;;;23.20;99.90;;;;;;5090102;28;20555;-71
2021/09/05 12:25:33;;;;;;;8.10;7.32;;;23.30;99.90;;;;;;5090169;28;20299;-71
2021/09/05 12:28:05;;;;;;;8.88;8.07;;;23.40;99.90;;;;;;5090080;28;20163;-71
2021/09/05 12:30:32;;;;;;;9.48;8.68;;;23.40;99.90;;;;;;5090009;28;20656;-71
2021/09/05 12:33:10;;;;;;;8.93;8.02;;;23.50;99.90;;;;;;5090027;28;20175;-71
2021/09/05 12:35:36;;;;;;;9.05;8.25;;;23.40;99.90;;;;;;5089984;28;20655;-71
2021/09/05 12:38:06;;;;;;;12.80;8.25;;;23.40;99.90;;;;;;5089915;28;20167;-71
2021/09/05 12:40:40;;;;;;;10.30;9.13;;;23.30;99.90;;;;;;5089793;28;20171;-71
2021/09/05 12:43:05;;;;;;;9.35;8.55;;;23.20;99.90;;;;;;5088362;28;20704;-71
2021/09/05 12:45:31;;;;;;;8.88;7.97;;;23.20;99.90;;;;;;5089814;28;20168;-71
2021/09/05 12:48:11;;;;;;;10.30;8.52;;;23.30;99.90;;;;;;5089718;28;20225;-71
2021/09/05 12:50:36;;;;;;;12.07;8.45;;;23.50;99.90;;;;;;5089640;28;20159;-71
2021/09/05 12:53:12;;;;;;;11.13;9.48;;;23.60;99.90;;;;;;5088310;28;20648;-69
2021/09/05 12:55:37;;;;;;;9.95;8.73;;;23.60;99.90;;;;;;5076874;28;20175;-69
2021/09/05 12:58:03;;;;;;;8.82;8.02;;;23.40;99.90;;;;;;5076040;28;20164;-70
2021/09/05 13:00:31;;;;;;;9.27;8.48;;;23.30;99.90;;;;;;5075981;28;20176;-71
2021/09/05 13:02:59;;;;;;;9.65;8.57;;;23.20;99.90;;;;;;5075770;28;20195;-71
2021/09/05 13:05:24;;;;;;;10.15;9.15;;;23.10;99.90;;;;;;5075677;28;20225;-71
2021/09/05 13:07:50;;;;;;;9.50;8.35;;;23.00;99.90;;;;;;5075674;28;20164;-71
2021/09/05 13:10:15;;;;;;;9.98;8.70;;;23.00;99.90;;;;;;5075611;28;20192;-71
2021/09/05 13:12:41;;;;;;;9.63;8.73;;;23.00;99.90;;;;;;5075656;28;20578;-71
2021/09/05 13:15:07;;;;;;;10.93;8.30;;;23.00;99.90;;;;;;5075623;28;20629;-71
2021/09/05 13:17:32;;;;;;;9.63;8.73;;;23.20;99.90;;;;;;5075532;28;20176;-71
2021/09/05 13:19:58;;;;;;;9.65;8.65;;;23.40;99.90;;;;;;5075506;28;20343;-71
2021/09/05 13:22:23;;;;;;;10.00;8.90;;;23.70;99.90;;;;;;5075429;28;20203;-71
2021/09/05 13:24:49;;;;;;;10.98;9.18;;;23.80;99.90;;;;;;5075441;28;20164;-69
2021/09/05 13:27:14;;;;;;;10.02;9.15;;;23.80;99.90;;;;;;5075452;28;20197;-69
2021/09/05 13:29:40;;;;;;;17.02;10.48;;;23.70;99.90;;;;;;5075263;28;20168;-69
2021/09/05 13:32:06;;;;;;;15.20;11.05;;;23.50;99.90;;;;;;5073980;28;20175;-69
2021/09/05 13:34:32;;;;;;;12.50;9.23;;;23.30;99.90;;;;;;5075151;28;20191;-69
2021/09/05 13:36:57;;;;;;;11.10;10.05;;;23.10;99.90;;;;;;5074046;28;20496;-69
2021/09/05 13:39:23;;;;;;;10.07;9.18;;;22.90;99.90;;;;;;5075185;28;20176;-69
2021/09/05 13:41:48;;;;;;;10.82;9.85;;;22.80;99.90;;;;;;5075070;28;20175;-69
2021/09/05 13:44:14;;;;;;;13.02;10.23;;;22.80;99.90;;;;;;5074851;28;20212;-69
2021/09/05 13:46:40;;;;;;;12.50;11.20;;;22.80;99.90;;;;;;5075004;28;20183;-69
2021/09/05 13:49:05;;;;;;;10.90;9.55;;;22.80;99.90;;;;;;5074876;28;20160;-69
2021/09/05 13:51:31;;;;;;;22.27;15.50;;;22.80;99.90;;;;;;5074963;28;20694;-69
2021/09/05 13:53:56;;;;;;;12.15;11.05;;;22.70;99.90;;;;;;5074884;28;20723;-69
2021/09/05 13:56:22;;;;;;;11.15;9.68;;;22.60;99.90;;;;;;5074870;28;20521;-69
2021/09/05 13:58:47;;;;;;;11.65;9.48;;;22.60;99.90;;;;;;5073478;28;20183;-69
2021/09/05 14:01:13;;;;;;;12.07;10.18;;;22.50;99.90;;;;;;5074784;28;20179;-69
2021/09/05 14:03:39;;;;;;;13.57;10.25;;;22.50;99.90;;;;;;5074435;28;20198;-69
2021/09/05 14:06:04;;;;;;;12.18;9.57;;;22.40;99.90;;;;;;5073674;28;20172;-69
2021/09/05 14:08:30;;;;;;;13.73;9.52;;;22.30;99.90;;;;;;5074591;28;20252;-69
2021/09/05 14:10:56;;;;;;;11.25;9.50;;;22.30;99.90;;;;;;5074492;28;20526;-69
2021/09/05 14:13:21;;;;;;;12.45;9.48;;;22.30;99.90;;;;;;5073237;28;20176;-70
2021/09/05 14:15:47;;;;;;;11.02;9.93;;;22.20;99.90;;;;;;5074452;28;20644;-70
2021/09/05 14:18:12;;;;;;;13.52;11.35;;;22.30;99.90;;;;;;5074354;28;20543;-70
2021/09/05 14:20:38;;;;;;;11.25;9.85;;;22.40;99.90;;;;;;5074320;28;20245;-71
2021/09/05 14:23:04;;;;;;;14.13;11.13;;;22.50;99.90;;;;;;5074175;28;20203;-69
2021/09/05 14:25:29;;;;;;;10.20;9.10;;;22.60;99.90;;;;;;5074253;28;20160;-69
2021/09/05 14:28:00;;;;;;;13.20;9.95;;;22.60;99.90;;;;;;5074079;28;20160;-69
2021/09/05 14:30:48;;;;;;;10.50;9.50;;;22.70;99.90;;;;;;5074157;28;20645;-69
2021/09/05 14:50:11;;;;;;;9.77;8.77;;;23.40;99.90;;;;;;5073954;28;20734;-69
2021/09/05 14:57:22;;;;;;;12.50;8.48;;;23.20;99.90;;;;;;5073662;28;20259;-69
2021/09/05 14:59:51;;;;;;;15.02;9.50;;;23.10;99.90;;;;;;5073610;28;20168;-69
2021/09/05 15:02:20;;;;;;;12.68;9.05;;;23.00;99.90;;;;;;5073581;28;20278;-70
2021/09/05 15:12:45;;;;;;;12.38;9.23;;;22.60;99.90;;;;;;5073803;28;20183;-69
2021/09/05 15:15:11;;;;;;;9.27;8.48;;;22.50;99.90;;;;;;5073563;28;20164;-69
2021/09/05 15:17:37;;;;;;;11.13;9.38;;;22.50;99.90;;;;;;5073254;28;20175;-69
2021/09/05 15:20:04;;;;;;;18.10;9.98;;;22.40;99.90;;;;;;5072205;28;20217;-69
2021/09/05 15:22:34;;;;;;;9.88;8.95;;;22.30;99.90;;;;;;5073389;28;20711;-69
2021/09/05 15:25:00;;;;;;;11.25;9.73;;;22.20;99.90;;;;;;5073329;28;20648;-69
2021/09/05 15:27:31;;;;;;;9.77;8.80;;;22.30;99.90;;;;;;5073444;28;20163;-69
2021/09/05 15:32:45;;;;;;;13.60;9.05;;;22.80;99.90;;;;;;5073490;28;20206;-69
2021/09/05 15:35:32;;;;;;;8.85;8.05;;;23.00;99.90;;;;;;5073379;28;20588;-69
2021/09/05 15:38:37;;;;;;;8.70;7.97;;;23.20;99.90;;;;;;5074045;28;20180;-69
2021/09/05 15:49:49;;;;;;;10.57;8.20;;;23.80;99.90;;;;;;5073520;28;20167;-69
2021/09/05 15:54:58;;;;;;;9.70;8.80;;;23.80;99.90;;;;;;5073150;28;20190;-70
2021/09/05 15:57:24;;;;;;;10.25;9.25;;;23.80;99.90;;;;;;5073026;28;20164;-69
2021/09/05 15:59:58;;;;;;;10.02;9.02;;;23.90;99.90;;;;;;5073061;28;20691;-69
2021/09/05 16:18:50;;;;;;;9.75;8.32;;;24.30;99.90;;;;;;5090898;28;20163;-69
2021/09/05 16:21:15;;;;;;;8.05;7.35;;;24.50;99.90;;;;;;5090893;28;20511;-69
2021/09/05 16:23:41;;;;;;;8.52;7.75;;;24.40;99.90;;;;;;5082635;28;20184;-70
2021/09/05 16:26:06;;;;;;;9.32;8.52;;;24.40;99.90;;;;;;5072832;28;20206;-69
2021/09/05 16:28:32;;;;;;;9.93;8.82;;;24.40;99.90;;;;;;5071533;28;20285;-69
2021/09/05 16:30:58;;;;;;;8.98;8.18;;;24.30;99.90;;;;;;5076058;28;20205;-69
2021/09/05 16:33:32;;;;;;;10.48;9.38;;;24.20;99.90;;;;;;5076419;28;20192;-69
2021/09/05 16:41:10;;;;;;;10.05;9.10;;;24.00;99.90;;;;;;5076503;28;20262;-69
2021/09/05 16:43:35;;;;;;;10.82;9.57;;;24.00;99.90;;;;;;5074922;28;20298;-69
2021/09/05 16:46:01;;;;;;;12.52;9.85;;;24.00;99.90;;;;;;5076243;28;20594;-69
2021/09/05 16:48:26;;;;;;;10.82;8.90;;;24.00;99.90;;;;;;5074939;28;20194;-70
2021/09/05 16:50:52;;;;;;;9.65;8.57;;;23.90;99.90;;;;;;5076179;28;20179;-70
2021/09/05 16:53:17;;;;;;;10.05;8.90;;;23.80;99.90;;;;;;5076141;28;20199;-69
2021/09/05 16:55:43;;;;;;;10.65;9.55;;;23.80;99.90;;;;;;5076092;28;20621;-70
2021/09/05 16:58:08;;;;;;;10.30;9.07;;;23.70;99.90;;;;;;5076181;28;20623;-69
2021/09/05 17:00:34;;;;;;;12.85;9.63;;;23.70;99.90;;;;;;5076015;28;20168;-70
2021/09/05 17:03:00;;;;;;;11.07;9.30;;;23.60;99.90;;;;;;5075980;28;20172;-69
2021/09/05 17:05:25;;;;;;;10.65;9.55;;;23.60;99.90;;;;;;5075948;28;20171;-70
2021/09/05 17:07:52;;;;;;;12.63;8.85;;;23.50;99.90;;;;;;5075996;28;20164;-70
2021/09/05 17:10:19;;;;;;;9.77;8.55;;;23.40;99.90;;;;;;5075771;28;20537;-70
2021/09/05 17:12:45;;;;;;;11.20;9.65;;;23.30;99.90;;;;;;5075835;28;20192;-69
2021/09/05 17:15:12;;;;;;;11.82;9.23;;;23.30;99.90;;;;;;5075750;28;20208;-69
2021/09/05 17:17:37;;;;;;;10.35;8.90;;;23.20;99.90;;;;;;5075795;28;20163;-70
2021/09/05 17:20:04;;;;;;;12.55;10.15;;;23.10;99.90;;;;;;5075809;28;20559;-70
2021/09/05 17:22:29;;;;;;;12.85;10.30;;;23.10;99.90;;;;;;5075684;28;20715;-70
2021/09/05 17:24:55;;;;;;;12.98;10.07;;;22.90;99.90;;;;;;5075637;28;20259;-69
2021/09/05 17:27:21;;;;;;;25.13;9.95;;;22.90;99.90;;;;;;5075613;28;20176;-69
2021/09/05 17:29:46;;;;;;;12.25;9.98;;;22.80;99.90;;;;;;5075530;28;20250;-69
2021/09/05 17:32:12;;;;;;;14.15;10.95;;;22.70;99.90;;;;;;5075458;28;20234;-69
2021/09/05 17:34:39;;;;;;;12.40;10.90;;;22.50;99.90;;;;;;5075509;28;20168;-69
2021/09/05 17:37:05;;;;;;;12.65;10.32;;;22.40;99.90;;;;;;5075433;28;20209;-69
2021/09/05 17:39:32;;;;;;;12.88;10.35;;;22.30;99.90;;;;;;5075363;28;20172;-72
2021/09/05 17:41:59;;;;;;;11.80;10.00;;;22.10;99.90;;;;;;5073731;28;20176;-71
2021/09/05 17:44:25;;;;;;;12.52;10.65;;;21.90;99.90;;;;;;5074825;28;20180;-71
2021/09/05 17:46:51;;;;;;;14.55;11.05;;;21.80;99.90;;;;;;5075158;28;20167;-71
2021/09/05 17:49:17;;;;;;;14.13;11.02;;;21.60;99.90;;;;;;5074932;28;20560;-71
2021/09/05 17:51:42;;;;;;;10.73;9.63;;;21.50;99.90;;;;;;5075080;28;20175;-71
2021/09/05 17:54:09;;;;;;;12.48;10.75;;;21.30;99.90;;;;;;5075028;28;20199;-73
2021/09/05 17:56:35;;;;;;;12.73;10.75;;;21.10;99.90;;;;;;5075008;28;20576;-73
2021/09/05 17:59:00;;;;;;;13.77;11.27;;;21.00;99.90;;;;;;5074933;28;20170;-73
2021/09/05 18:01:26;;;;;;;12.70;10.75;;;20.80;99.90;;;;;;5073754;28;20536;-73
2021/09/05 18:03:52;;;;;;;11.95;10.73;;;20.70;99.90;;;;;;5074897;28;20187;-72
2021/09/05 18:06:17;;;;;;;15.65;11.02;;;20.50;99.90;;;;;;5074736;28;20183;-72
